Time;durP1;ratioP1;P1;durP2;ratioP2;P2;SDS_P1;SDS_P2;PMS_P1;PMS_P2;Temp;Humidity;BMP_temperature;BMP_pressure;BME280_temperature;BME280_humidity;BME280_pressure;Samples;Min_cycle;Max_cycle;Signal;HPM_P1;HPM_P2
2024/03/16 00:00:45;;;;;;;1.50;0.40;;;13.90;74.20;;;;;;2311019;56;20971;-65
2024/03/16 00:03:11;;;;;;;1.12;0.43;;;14.00;74.40;;;;;;2285017;55;20960;-65
2024/03/16 00:05:38;;;;;;;0.70;0.30;;;14.00;74.40;;;;;;2308885;56;20947;-66
2024/03/16 00:08:04;;;;;;;1.08;0.32;;;14.00;74.40;;;;;;2309661;56;20954;-66
2024/03/16 00:10:32;;;;;;;1.48;0.40;;;14.00;74.50;;;;;;2548218;54;20939;-65
2024/03/16 00:13:00;;;;;;;2.15;0.50;;;14.00;74.50;;;;;;2309149;56;20923;-65
2024/03/16 00:15:27;;;;;;;2.17;0.47;;;14.00;74.50;;;;;;2295822;55;21468;-65
2024/03/16 00:17:53;;;;;;;2.80;0.50;;;14.00;74.40;;;;;;2300174;55;20975;-65
2024/03/16 00:20:22;;;;;;;1.52;0.40;;;14.00;74.40;;;;;;2309332;56;21019;-65
2024/03/16 00:22:48;;;;;;;0.68;0.40;;;14.10;74.50;;;;;;2309326;56;20951;-66
2024/03/16 00:25:16;;;;;;;1.67;0.50;;;14.10;74.50;;;;;;2548683;54;21239;-65
2024/03/16 00:27:43;;;;;;;1.02;0.30;;;14.10;74.50;;;;;;2309091;56;20979;-66
2024/03/16 00:30:10;;;;;;;1.52;0.50;;;14.10;74.50;;;;;;2309721;54;20991;-65
2024/03/16 00:32:38;;;;;;;1.15;0.30;;;14.10;74.50;;;;;;2548694;54;20953;-64
2024/03/16 00:35:04;;;;;;;1.30;0.43;;;14.10;74.50;;;;;;2309359;56;20975;-65
2024/03/16 00:37:31;;;;;;;1.73;0.40;;;14.10;74.40;;;;;;2309079;56;21199;-65
2024/03/16 00:39:58;;;;;;;1.48;0.37;;;14.10;74.40;;;;;;2548123;54;21417;-65
2024/03/16 00:42:25;;;;;;;1.45;0.40;;;14.10;74.40;;;;;;2309445;56;20952;-66
2024/03/16 00:44:51;;;;;;;0.68;0.32;;;14.10;74.40;;;;;;2309357;54;21102;-66
2024/03/16 00:47:18;;;;;;;0.90;0.40;;;14.10;74.30;;;;;;2309956;56;21015;-65
2024/03/16 00:49:44;;;;;;;0.95;0.32;;;14.10;74.30;;;;;;2308904;56;21658;-65
2024/03/16 00:52:12;;;;;;;1.40;0.40;;;14.10;74.30;;;;;;2309213;56;21223;-65
2024/03/16 00:54:38;;;;;;;0.52;0.30;;;14.10;74.30;;;;;;2309397;56;20999;-66
2024/03/16 00:57:04;;;;;;;1.08;0.40;;;14.10;74.30;;;;;;2309519;56;21011;-66
2024/03/16 00:59:31;;;;;;;1.67;0.50;;;14.10;74.30;;;;;;2309310;54;21321;-66
2024/03/16 01:01:57;;;;;;;1.58;0.50;;;14.10;74.30;;;;;;2309411;56;20991;-65
2024/03/16 01:04:26;;;;;;;1.35;0.43;;;14.10;74.30;;;;;;2309127;54;20950;-66
2024/03/16 01:06:53;;;;;;;0.80;0.37;;;14.10;74.30;;;;;;2547886;54;21046;-65
2024/03/16 01:09:19;;;;;;;2.33;0.50;;;14.10;74.30;;;;;;2309330;56;21046;-65
2024/03/16 01:11:45;;;;;;;0.82;0.40;;;14.10;74.30;;;;;;2309241;56;20971;-65
2024/03/16 01:14:12;;;;;;;1.05;0.40;;;14.10;74.40;;;;;;2309627;56;21767;-65
2024/03/16 01:16:39;;;;;;;0.50;0.30;;;14.10;74.40;;;;;;2308813;56;20939;-66
2024/03/16 01:19:05;;;;;;;1.50;0.30;;;14.10;74.50;;;;;;2309668;56;20911;-66
2024/03/16 01:21:32;;;;;;;1.37;0.50;;;14.10;74.50;;;;;;2309094;56;20979;-65
2024/03/16 01:23:58;;;;;;;0.95;0.30;;;14.10;74.50;;;;;;2304588;56;21047;-65
2024/03/16 01:26:24;;;;;;;2.15;0.73;;;14.10;74.50;;;;;;2547474;54;20931;-66
2024/03/16 01:28:53;;;;;;;2.20;0.40;;;14.10;74.60;;;;;;2547289;54;21285;-65
2024/03/16 01:31:22;;;;;;;1.15;0.40;;;13.90;74.40;;;;;;2548393;54;20998;-65
2024/03/16 01:33:50;;;;;;;2.05;0.50;;;14.10;74.60;;;;;;2309324;56;21655;-65
2024/03/16 01:36:17;;;;;;;0.85;0.30;;;14.10;74.60;;;;;;2308686;56;21480;-65
2024/03/16 01:38:44;;;;;;;1.95;0.50;;;14.10;74.70;;;;;;2548078;54;21318;-65
2024/03/16 01:41:10;;;;;;;1.60;0.50;;;14.20;74.80;;;;;;2548083;54;20992;-65
2024/03/16 01:43:37;;;;;;;2.05;0.70;;;14.20;74.80;;;;;;2309095;56;20989;-66
2024/03/16 01:46:03;;;;;;;1.42;0.50;;;14.10;74.70;;;;;;2295714;55;20967;-65
2024/03/16 01:48:32;;;;;;;1.08;0.30;;;14.20;74.80;;;;;;2299247;55;21338;-65
2024/03/16 01:50:59;;;;;;;0.50;0.30;;;14.20;74.70;;;;;;2309145;56;21276;-65
2024/03/16 01:53:26;;;;;;;1.50;0.40;;;14.20;74.80;;;;;;2309585;56;21590;-65
2024/03/16 01:55:53;;;;;;;0.57;0.30;;;14.20;74.70;;;;;;2308536;56;20991;-65
2024/03/16 01:58:19;;;;;;;1.67;0.40;;;14.20;74.70;;;;;;2309611;56;21288;-65
2024/03/16 02:00:48;;;;;;;2.12;0.65;;;14.20;74.70;;;;;;2306499;54;21352;-65
2024/03/16 02:03:14;;;;;;;3.97;2.12;;;14.20;74.70;;;;;;2289736;54;21074;-66
2024/03/16 02:05:46;;;;;;;3.35;1.30;;;14.20;74.70;;;;;;2308937;56;21051;-65
2024/03/16 02:08:12;;;;;;;2.40;0.90;;;14.30;74.80;;;;;;2547582;54;21279;-65
2024/03/16 02:10:39;;;;;;;1.92;0.75;;;14.20;74.70;;;;;;2307180;56;20921;-65
2024/03/16 02:13:05;;;;;;;2.47;0.70;;;14.20;74.70;;;;;;2287266;55;21015;-65
2024/03/16 02:15:32;;;;;;;2.50;0.50;;;14.20;74.70;;;;;;2309039;56;20947;-64
2024/03/16 02:17:58;;;;;;;1.52;0.50;;;14.30;74.90;;;;;;2309137;56;20963;-66
2024/03/16 02:20:26;;;;;;;1.65;0.50;;;14.20;74.80;;;;;;2309829;56;21087;-66
2024/03/16 02:22:52;;;;;;;1.23;0.57;;;14.30;74.90;;;;;;2309324;54;20998;-65
2024/03/16 02:25:19;;;;;;;2.53;0.80;;;14.30;75.00;;;;;;2308771;56;20959;-65
2024/03/16 02:27:45;;;;;;;1.17;0.57;;;14.30;75.00;;;;;;2308703;56;20943;-65
2024/03/16 02:30:14;;;;;;;1.40;0.60;;;14.30;75.00;;;;;;2543339;54;21218;-66
2024/03/16 02:32:40;;;;;;;2.22;0.60;;;14.30;75.10;;;;;;2288084;55;21958;-65
2024/03/16 02:35:10;;;;;;;2.72;0.60;;;14.30;75.10;;;;;;2308814;56;21026;-66
2024/03/16 02:37:36;;;;;;;1.98;0.60;;;14.30;75.10;;;;;;2547802;54;21043;-66
2024/03/16 02:40:06;;;;;;;2.70;0.80;;;14.30;75.10;;;;;;2309936;56;21347;-65
2024/03/16 02:42:35;;;;;;;3.35;0.70;;;14.30;75.00;;;;;;2548671;54;20955;-65
2024/03/16 02:45:01;;;;;;;1.92;0.68;;;14.40;75.00;;;;;;2308701;56;20986;-65
2024/03/16 02:47:27;;;;;;;2.47;0.80;;;14.30;74.90;;;;;;2308980;56;20952;-66
2024/03/16 02:50:10;;;;;;;1.90;0.70;;;14.30;74.90;;;;;;2309097;55;20975;-65
2024/03/16 02:52:37;;;;;;;2.67;0.77;;;14.30;74.70;;;;;;2309059;56;21002;-66
2024/03/16 02:55:04;;;;;;;5.57;1.60;;;14.40;75.10;;;;;;2547735;54;20979;-65
2024/03/16 02:57:31;;;;;;;5.37;1.60;;;14.30;75.10;;;;;;2297562;54;20970;-66
2024/03/16 02:59:59;;;;;;;4.80;1.83;;;14.40;75.20;;;;;;2297798;55;21003;-66
2024/03/16 03:02:29;;;;;;;3.72;1.58;;;14.30;75.20;;;;;;2308938;55;21023;-65
2024/03/16 03:04:55;;;;;;;3.33;1.45;;;14.30;75.10;;;;;;2299613;54;21025;-65
2024/03/16 03:07:21;;;;;;;3.35;1.27;;;14.40;75.20;;;;;;2296540;55;20994;-66
2024/03/16 03:09:47;;;;;;;3.70;1.60;;;14.30;75.80;;;;;;2309010;56;21012;-66
2024/03/16 03:12:14;;;;;;;5.18;1.45;;;14.30;75.00;;;;;;2309359;56;21508;-66
2024/03/16 03:14:41;;;;;;;5.18;1.60;;;14.30;75.00;;;;;;2308719;56;21015;-65
2024/03/16 03:17:08;;;;;;;4.57;1.58;;;14.30;75.00;;;;;;2309235;56;22149;-65
2024/03/16 03:19:34;;;;;;;3.10;1.20;;;14.30;75.10;;;;;;2309465;54;20955;-66
2024/03/16 03:22:00;;;;;;;4.90;1.62;;;14.30;75.10;;;;;;2548513;54;21505;-66
2024/03/16 03:24:26;;;;;;;3.30;1.48;;;14.30;75.20;;;;;;2309472;56;21456;-66
2024/03/16 03:26:54;;;;;;;2.67;1.08;;;14.30;75.30;;;;;;2533053;54;21015;-65
2024/03/16 03:29:20;;;;;;;3.83;1.23;;;14.30;75.40;;;;;;2297176;55;20943;-66
2024/03/16 03:31:46;;;;;;;7.15;1.30;;;14.30;75.50;;;;;;2548645;54;21003;-65
2024/03/16 03:34:13;;;;;;;4.05;1.10;;;14.30;75.60;;;;;;2548904;54;21429;-65
2024/03/16 03:36:44;;;;;;;2.40;0.98;;;14.30;75.60;;;;;;2548348;54;20940;-65
2024/03/16 03:39:14;;;;;;;3.37;1.30;;;14.30;75.70;;;;;;2309402;56;20963;-66
2024/03/16 03:41:40;;;;;;;3.90;1.23;;;14.30;75.60;;;;;;2308942;54;20994;-65
2024/03/16 03:44:20;;;;;;;3.08;0.95;;;14.30;75.70;;;;;;2309501;54;20970;-66
2024/03/16 03:46:50;;;;;;;2.12;0.70;;;14.30;75.80;;;;;;2309275;56;20960;-65
2024/03/16 03:49:50;;;;;;;2.62;1.02;;;14.30;75.70;;;;;;2308800;56;20924;-65
2024/03/16 03:52:16;;;;;;;2.60;0.90;;;14.40;75.80;;;;;;2548830;54;20990;-65
2024/03/16 03:54:43;;;;;;;3.53;1.30;;;14.40;75.70;;;;;;2295592;55;20926;-66
2024/03/16 03:57:10;;;;;;;2.70;1.10;;;14.40;75.80;;;;;;2284631;55;21305;-65
2024/03/16 03:59:38;;;;;;;3.35;1.37;;;14.40;75.70;;;;;;2305212;55;20943;-66
2024/03/16 04:02:04;;;;;;;4.12;1.33;;;14.40;75.70;;;;;;2308712;56;21837;-66
2024/03/16 04:04:31;;;;;;;4.03;1.10;;;14.40;75.60;;;;;;2309449;56;21551;-66
2024/03/16 04:06:57;;;;;;;2.90;1.15;;;14.40;75.60;;;;;;2309204;56;21518;-66
2024/03/16 04:09:24;;;;;;;5.05;1.55;;;14.40;75.70;;;;;;2309245;56;21453;-66
2024/03/16 04:11:50;;;;;;;3.70;1.30;;;14.40;75.70;;;;;;2309416;56;21283;-66
2024/03/16 04:14:17;;;;;;;2.60;1.10;;;14.40;75.70;;;;;;2549180;54;21011;-65
2024/03/16 04:16:45;;;;;;;3.67;0.80;;;14.40;75.70;;;;;;2548432;54;21026;-66
2024/03/16 04:19:11;;;;;;;4.10;1.23;;;14.50;75.90;;;;;;2309446;54;20979;-65
2024/03/16 04:21:43;;;;;;;3.72;0.93;;;14.40;75.70;;;;;;2309321;56;20955;-65
2024/03/16 04:24:09;;;;;;;4.07;1.35;;;14.40;75.70;;;;;;2309528;56;21520;-66
2024/03/16 04:26:35;;;;;;;3.30;1.40;;;14.50;75.70;;;;;;2547960;54;20943;-65
2024/03/16 04:29:02;;;;;;;3.33;1.40;;;14.50;75.80;;;;;;2309463;56;21367;-65
2024/03/16 04:31:31;;;;;;;2.97;1.30;;;14.50;75.80;;;;;;2308619;56;21196;-66
2024/03/16 04:33:58;;;;;;;4.93;1.42;;;14.50;75.70;;;;;;2548808;54;20963;-66
2024/03/16 04:36:24;;;;;;;5.07;1.20;;;14.50;75.70;;;;;;2309164;56;21543;-66
2024/03/16 04:38:50;;;;;;;4.47;1.10;;;14.50;75.70;;;;;;2309392;56;20975;-66
2024/03/16 04:41:19;;;;;;;3.40;1.37;;;14.50;75.60;;;;;;2309358;56;21382;-65
2024/03/16 04:43:47;;;;;;;3.10;1.12;;;14.50;75.60;;;;;;2308840;56;21255;-66
2024/03/16 04:46:14;;;;;;;4.60;1.48;;;14.50;75.60;;;;;;2548494;54;20971;-66
2024/03/16 04:48:40;;;;;;;4.80;1.30;;;14.50;75.60;;;;;;2308974;56;21102;-65
2024/03/16 04:51:07;;;;;;;4.43;1.45;;;14.50;75.60;;;;;;2548723;54;21452;-65
2024/03/16 04:53:33;;;;;;;3.03;0.90;;;14.50;75.60;;;;;;2309400;56;20994;-66
2024/03/16 04:55:59;;;;;;;2.62;1.00;;;14.50;75.60;;;;;;2309425;56;21046;-66
2024/03/16 04:58:25;;;;;;;2.50;1.00;;;14.50;75.70;;;;;;2309594;56;21003;-66
2024/03/16 05:00:52;;;;;;;2.97;1.08;;;14.60;75.80;;;;;;2548677;54;20979;-66
2024/03/16 05:03:19;;;;;;;3.08;0.90;;;14.60;75.80;;;;;;2309911;54;21361;-65
2024/03/16 05:05:45;;;;;;;2.60;0.73;;;14.60;75.70;;;;;;2309572;56;20931;-65
2024/03/16 05:08:14;;;;;;;2.72;0.98;;;14.60;75.60;;;;;;2520981;54;21128;-66
2024/03/16 05:10:41;;;;;;;3.15;0.85;;;14.60;75.60;;;;;;2273426;55;21029;-66
2024/03/16 05:13:07;;;;;;;3.42;1.20;;;14.60;75.60;;;;;;2306839;56;21507;-66
2024/03/16 05:15:34;;;;;;;2.70;0.93;;;14.60;75.60;;;;;;2309285;56;21011;-66
2024/03/16 05:18:00;;;;;;;4.03;1.48;;;14.60;75.60;;;;;;2309513;56;20959;-66
2024/03/16 05:20:26;;;;;;;2.75;0.80;;;14.60;75.60;;;;;;2309579;56;21420;-66
2024/03/16 05:22:53;;;;;;;5.85;1.10;;;14.60;76.20;;;;;;2309742;56;20952;-66
2024/03/16 05:25:22;;;;;;;2.92;0.90;;;14.60;75.50;;;;;;2309329;56;21003;-66
2024/03/16 05:27:48;;;;;;;2.35;0.80;;;14.60;75.40;;;;;;2548293;54;20916;-66
2024/03/16 05:30:15;;;;;;;2.22;0.70;;;14.60;75.30;;;;;;2309900;56;21030;-66
2024/03/16 05:32:42;;;;;;;3.03;1.00;;;14.60;75.30;;;;;;2309616;56;21946;-66
2024/03/16 05:35:10;;;;;;;3.30;0.70;;;14.60;75.20;;;;;;2309584;56;21019;-66
2024/03/16 05:37:40;;;;;;;2.58;0.93;;;14.60;75.30;;;;;;2308701;56;20915;-65
2024/03/16 05:40:10;;;;;;;4.85;0.90;;;14.60;75.20;;;;;;2309474;56;20951;-65
2024/03/16 05:42:42;;;;;;;2.30;0.95;;;14.60;75.20;;;;;;2309438;56;21003;-66
2024/03/16 05:45:08;;;;;;;;;;;14.60;75.20;;;;;;2307422;55;21359;-66
2024/03/16 05:47:34;;;;;;;2.78;0.70;;;14.60;74.20;;;;;;2291361;54;20080;-65
2024/03/16 05:50:03;;;;;;;3.70;0.68;;;14.60;75.20;;;;;;2309405;56;20948;-66
2024/03/16 05:52:29;;;;;;;2.85;1.00;;;14.50;75.20;;;;;;2309399;56;20999;-65
2024/03/16 05:54:56;;;;;;;2.12;0.60;;;14.60;75.40;;;;;;2309589;56;21045;-65
2024/03/16 05:57:24;;;;;;;3.92;0.77;;;14.50;75.40;;;;;;2298238;56;21007;-66
2024/03/16 05:59:52;;;;;;;1.95;0.80;;;14.50;75.40;;;;;;2288391;54;21440;-66
2024/03/16 06:02:22;;;;;;;3.83;1.17;;;14.60;75.60;;;;;;2309070;56;20979;-66
2024/03/16 06:04:48;;;;;;;2.72;1.15;;;14.50;75.50;;;;;;2309444;56;20963;-66
2024/03/16 06:07:15;;;;;;;3.95;1.20;;;14.60;75.60;;;;;;2309463;56;20979;-66
2024/03/16 06:09:41;;;;;;;2.60;0.93;;;14.60;75.60;;;;;;2309297;56;21476;-65
2024/03/16 06:12:07;;;;;;;4.37;1.20;;;14.60;75.50;;;;;;2309569;56;21433;-65
2024/03/16 06:14:34;;;;;;;5.40;1.27;;;14.60;75.50;;;;;;2309616;56;21031;-65
2024/03/16 06:17:01;;;;;;;2.90;1.10;;;14.60;75.50;;;;;;2309075;56;21059;-65
2024/03/16 06:19:27;;;;;;;4.68;1.30;;;14.60;75.50;;;;;;2309728;56;21046;-65
2024/03/16 06:21:53;;;;;;;3.30;1.20;;;14.60;75.50;;;;;;2548745;54;21365;-65
2024/03/16 06:24:21;;;;;;;3.25;1.30;;;14.60;75.50;;;;;;2309712;56;21038;-66
2024/03/16 06:26:54;;;;;;;3.25;1.05;;;14.60;75.50;;;;;;2285970;55;21080;-66
2024/03/16 06:29:25;;;;;;;4.07;1.10;;;14.70;75.70;;;;;;2308445;55;21002;-66
2024/03/16 06:32:04;;;;;;;3.40;0.87;;;14.60;75.60;;;;;;2309988;56;21502;-66
2024/03/16 06:34:34;;;;;;;3.47;0.70;;;14.60;75.40;;;;;;2308883;56;20943;-66
2024/03/16 06:37:01;;;;;;;2.85;0.70;;;14.60;75.40;;;;;;2309382;56;20951;-66
2024/03/16 06:39:27;;;;;;;4.20;0.80;;;14.60;75.50;;;;;;2309512;56;20967;-65
2024/03/16 06:41:53;;;;;;;2.95;0.75;;;14.60;75.50;;;;;;2309433;56;21020;-66
2024/03/16 06:44:25;;;;;;;3.37;0.77;;;14.60;75.40;;;;;;2309122;55;21022;-66
2024/03/16 06:46:51;;;;;;;1.90;0.70;;;14.70;75.40;;;;;;2309780;56;21001;-66
2024/03/16 06:49:18;;;;;;;2.08;0.70;;;14.70;75.60;;;;;;2309749;56;20995;-66
2024/03/16 06:51:47;;;;;;;3.35;1.15;;;14.70;75.70;;;;;;2548543;54;20919;-66
2024/03/16 06:54:14;;;;;;;3.05;0.90;;;14.70;75.60;;;;;;2291291;55;21075;-66
2024/03/16 06:56:40;;;;;;;2.90;0.93;;;14.70;75.70;;;;;;2305934;55;21326;-65
2024/03/16 06:59:07;;;;;;;6.15;0.90;;;14.70;75.70;;;;;;2548720;54;21260;-65
2024/03/16 07:01:33;;;;;;;3.72;1.10;;;14.70;75.70;;;;;;2308340;54;20947;-65
2024/03/16 07:04:02;;;;;;;2.60;0.80;;;14.70;75.70;;;;;;2310250;56;20987;-66
2024/03/16 07:06:29;;;;;;;3.70;0.90;;;14.70;75.60;;;;;;2293778;55;20927;-66
2024/03/16 07:08:57;;;;;;;4.53;0.88;;;14.70;75.70;;;;;;2295703;55;20971;-65
2024/03/16 07:11:24;;;;;;;2.92;0.88;;;14.70;75.70;;;;;;2548612;54;20987;-66
2024/03/16 07:13:50;;;;;;;3.08;0.95;;;14.70;75.80;;;;;;2309867;56;21655;-66
2024/03/16 07:16:17;;;;;;;2.37;0.80;;;14.80;75.90;;;;;;2309706;56;21460;-66
2024/03/16 07:18:45;;;;;;;3.15;0.77;;;14.80;76.00;;;;;;2521456;54;21302;-66
2024/03/16 07:21:11;;;;;;;2.97;0.82;;;14.80;76.00;;;;;;2543001;54;21790;-65
2024/03/16 07:23:39;;;;;;;3.10;0.75;;;14.80;76.00;;;;;;2547936;54;21058;-66
2024/03/16 07:26:09;;;;;;;3.17;0.80;;;14.80;75.90;;;;;;2309259;56;20958;-66
2024/03/16 07:28:35;;;;;;;2.95;0.85;;;14.90;76.10;;;;;;2308984;56;21495;-66
2024/03/16 07:31:02;;;;;;;5.43;1.10;;;14.90;76.10;;;;;;2309044;56;20916;-66
2024/03/16 07:33:30;;;;;;;3.17;0.77;;;14.90;76.10;;;;;;2307934;56;21765;-66
2024/03/16 07:35:58;;;;;;;5.87;1.05;;;14.90;76.10;;;;;;2548247;54;21473;-66
2024/03/16 07:38:24;;;;;;;4.60;0.80;;;15.00;76.20;;;;;;2309270;56;20998;-66
2024/03/16 07:40:53;;;;;;;4.78;1.10;;;15.00;76.10;;;;;;2521070;54;21854;-66
2024/03/16 07:43:20;;;;;;;3.90;0.90;;;15.00;76.10;;;;;;2306127;54;20955;-65
2024/03/16 07:45:53;;;;;;;4.28;0.98;;;15.00;76.20;;;;;;2309866;56;20990;-66
2024/03/16 07:48:22;;;;;;;;;;;15.00;76.10;;;;;;2313075;56;21551;-65
2024/03/16 07:50:48;;;;;;;3.35;1.02;;;15.10;75.20;;;;;;2548445;54;20364;-66
2024/03/16 07:53:14;;;;;;;3.50;1.08;;;15.10;76.10;;;;;;2548338;54;21877;-66
2024/03/16 07:55:41;;;;;;;4.25;0.95;;;15.10;76.10;;;;;;2308674;56;21050;-66
2024/03/16 07:58:07;;;;;;;3.92;0.77;;;15.10;76.20;;;;;;2308928;56;20983;-65
2024/03/16 08:00:37;;;;;;;2.65;1.02;;;15.10;76.30;;;;;;2308820;56;20979;-65
2024/03/16 08:03:03;;;;;;;5.12;0.93;;;15.20;76.30;;;;;;2308832;56;21018;-65
2024/03/16 08:05:32;;;;;;;3.03;0.75;;;15.20;76.10;;;;;;2309191;56;21030;-65
2024/03/16 08:07:59;;;;;;;6.35;1.00;;;15.20;76.10;;;;;;2308775;56;20939;-65
2024/03/16 08:10:25;;;;;;;4.62;0.70;;;15.20;76.00;;;;;;2521695;54;21038;-66
2024/03/16 08:12:51;;;;;;;3.80;0.82;;;15.20;76.00;;;;;;2309008;56;21030;-65
2024/03/16 08:15:18;;;;;;;2.70;0.90;;;15.30;76.10;;;;;;2548198;54;21019;-66
2024/03/16 08:17:45;;;;;;;3.17;0.80;;;15.20;76.70;;;;;;2309094;55;21384;-65
2024/03/16 08:20:12;;;;;;;2.85;0.70;;;15.30;76.20;;;;;;2309281;54;20987;-65
2024/03/16 08:22:39;;;;;;;2.00;0.80;;;15.30;76.30;;;;;;2309017;56;21023;-66
2024/03/16 08:25:06;;;;;;;4.32;0.70;;;15.30;76.20;;;;;;2309185;56;20998;-65
2024/03/16 08:27:34;;;;;;;3.20;0.88;;;15.30;76.10;;;;;;2308991;56;20951;-66
2024/03/16 08:30:01;;;;;;;3.12;0.77;;;15.30;76.10;;;;;;2548147;54;21003;-66
2024/03/16 08:32:29;;;;;;;2.78;0.62;;;15.40;76.30;;;;;;2308984;56;21391;-66
2024/03/16 08:34:55;;;;;;;4.22;0.80;;;15.40;76.30;;;;;;2309318;56;20976;-66
2024/03/16 08:37:21;;;;;;;2.72;0.80;;;15.40;76.30;;;;;;2308863;54;21014;-66
2024/03/16 08:39:48;;;;;;;4.95;0.75;;;15.40;76.30;;;;;;2547478;54;20951;-66
2024/03/16 08:42:14;;;;;;;2.15;0.70;;;15.50;76.40;;;;;;2308684;56;20986;-66
2024/03/16 08:44:40;;;;;;;3.47;0.90;;;15.50;76.40;;;;;;2547983;54;20951;-65
2024/03/16 08:47:07;;;;;;;2.58;0.80;;;15.50;76.40;;;;;;2548392;54;21828;-66
2024/03/16 08:49:39;;;;;;;4.30;1.02;;;15.50;76.30;;;;;;2309022;56;20967;-66
2024/03/16 08:54:47;;;;;;;3.78;1.17;;;15.60;76.30;;;;;;2510000;53;23415;-66
2024/03/16 08:57:15;;;;;;;3.83;1.08;;;15.60;76.30;;;;;;2278137;55;21050;-65
2024/03/16 08:59:41;;;;;;;5.32;1.10;;;15.60;76.20;;;;;;2277850;55;21696;-66
2024/03/16 09:02:07;;;;;;;6.22;1.40;;;15.70;76.30;;;;;;2510450;54;20978;-66
2024/03/16 09:04:34;;;;;;;6.18;1.40;;;15.70;76.30;;;;;;2510354;53;21499;-66
2024/03/16 09:07:01;;;;;;;4.47;1.20;;;15.70;76.20;;;;;;2278312;54;21420;-65
2024/03/16 09:09:27;;;;;;;3.80;1.25;;;15.70;76.10;;;;;;2510308;53;20970;-66
2024/03/16 09:11:55;;;;;;;4.85;1.40;;;15.80;76.40;;;;;;2278265;54;21346;-66
2024/03/16 09:14:21;;;;;;;5.55;1.55;;;15.90;76.40;;;;;;2277870;54;21330;-66
2024/03/16 09:16:48;;;;;;;3.78;1.20;;;15.80;76.10;;;;;;2278017;54;21037;-65
2024/03/16 09:19:15;;;;;;;2.22;0.85;;;15.90;76.10;;;;;;2278230;54;20970;-66
2024/03/16 09:21:41;;;;;;;5.22;1.20;;;15.90;76.10;;;;;;2278305;54;21381;-66
2024/03/16 09:24:07;;;;;;;4.90;1.00;;;15.90;76.00;;;;;;2277676;54;21038;-65
2024/03/16 09:26:34;;;;;;;3.17;1.17;;;15.90;76.10;;;;;;2278033;54;21049;-66
2024/03/16 09:29:02;;;;;;;3.17;1.20;;;15.90;76.10;;;;;;2519626;54;20967;-66
2024/03/16 09:31:29;;;;;;;4.30;1.17;;;15.90;75.90;;;;;;2299634;54;21267;-66
2024/03/16 09:33:56;;;;;;;2.78;1.00;;;16.00;76.00;;;;;;2550457;53;21429;-66
2024/03/16 09:36:22;;;;;;;2.90;0.95;;;16.00;75.80;;;;;;2486772;53;21497;-66
2024/03/16 09:38:52;;;;;;;5.97;0.90;;;16.00;75.70;;;;;;2275059;55;22037;-66
2024/03/16 09:41:19;;;;;;;3.05;0.73;;;16.00;75.60;;;;;;2505512;55;20932;-66
2024/03/16 09:43:45;;;;;;;2.22;0.55;;;16.10;75.70;;;;;;2274608;55;20956;-66
2024/03/16 09:46:13;;;;;;;2.65;0.70;;;16.10;75.70;;;;;;2273516;55;21300;-65
2024/03/16 09:48:39;;;;;;;2.95;0.75;;;16.10;75.70;;;;;;2273413;55;21271;-66
2024/03/16 09:51:09;;;;;;;1.25;0.50;;;16.10;75.60;;;;;;2273963;55;21019;-66
2024/03/16 09:53:35;;;;;;;2.12;0.80;;;16.10;75.70;;;;;;2273184;55;20984;-65
2024/03/16 09:56:09;;;;;;;1.70;0.60;;;16.10;75.70;;;;;;2273951;55;20964;-66
2024/03/16 09:58:36;;;;;;;2.72;0.90;;;16.20;75.60;;;;;;2275374;55;20941;-66
2024/03/16 10:01:03;;;;;;;1.42;0.60;;;16.20;75.90;;;;;;2273317;55;21506;-66
2024/03/16 10:03:31;;;;;;;2.12;0.57;;;16.20;75.90;;;;;;2272482;55;21081;-66
2024/03/16 10:06:04;;;;;;;3.62;0.93;;;16.20;75.80;;;;;;2272680;55;20972;-65
2024/03/16 10:08:36;;;;;;;2.55;0.82;;;16.20;75.50;;;;;;2273127;55;21040;-66
2024/03/16 10:11:12;;;;;;;3.78;0.93;;;16.30;75.60;;;;;;2272900;55;20936;-66
2024/03/16 10:13:54;;;;;;;2.00;0.70;;;16.30;75.00;;;;;;2269753;56;20961;-66
2024/03/16 10:16:20;;;;;;;2.00;0.70;;;16.40;74.70;;;;;;2276532;56;21036;-66
2024/03/16 10:18:46;;;;;;;2.37;0.80;;;16.30;75.20;;;;;;2276528;56;20933;-66
2024/03/16 10:21:13;;;;;;;1.27;0.60;;;16.30;75.30;;;;;;2277326;55;21452;-66
2024/03/16 10:23:39;;;;;;;1.83;0.47;;;16.30;75.30;;;;;;2271426;55;21014;-66
2024/03/16 10:26:09;;;;;;;1.33;0.40;;;16.40;75.20;;;;;;2254959;55;21229;-66
2024/03/16 10:28:35;;;;;;;1.02;0.40;;;16.40;75.10;;;;;;2284989;55;21175;-66
2024/03/16 10:31:05;;;;;;;2.03;0.50;;;16.40;75.10;;;;;;2286109;55;21469;-66
2024/03/16 10:33:41;;;;;;;1.33;0.60;;;16.40;75.20;;;;;;2286195;55;21479;-66
2024/03/16 10:36:12;;;;;;;1.90;0.65;;;16.40;74.50;;;;;;2286740;55;20934;-66
2024/03/16 10:38:42;;;;;;;2.20;0.70;;;16.50;75.00;;;;;;2299488;55;21524;-66
2024/03/16 10:41:15;;;;;;;2.70;0.80;;;16.50;75.30;;;;;;2296646;54;21079;-66
2024/03/16 10:43:44;;;;;;;2.78;0.90;;;16.50;75.30;;;;;;2288545;55;21515;-66
2024/03/16 10:46:10;;;;;;;3.95;1.85;;;16.50;75.00;;;;;;2286569;56;20950;-66
2024/03/16 10:48:36;;;;;;;5.72;3.42;;;16.50;75.00;;;;;;2285988;55;20950;-66
2024/03/16 10:51:07;;;;;;;5.57;2.65;;;16.50;74.90;;;;;;2296609;54;21039;-66
2024/03/16 10:53:34;;;;;;;3.80;1.73;;;16.60;74.70;;;;;;2294531;54;21003;-66
2024/03/16 10:56:01;;;;;;;2.83;0.90;;;16.60;74.90;;;;;;2291139;54;20997;-65
2024/03/16 10:58:28;;;;;;;2.50;0.80;;;16.60;74.90;;;;;;2290100;54;21041;-66
2024/03/16 11:01:11;;;;;;;2.00;0.70;;;16.60;74.80;;;;;;2281383;55;21440;-67
2024/03/16 11:03:38;;;;;;;2.42;0.60;;;16.60;74.20;;;;;;2281791;56;20999;-66
2024/03/16 11:06:11;;;;;;;2.15;0.55;;;16.70;74.70;;;;;;2280606;55;20974;-66
2024/03/16 11:08:42;;;;;;;2.17;0.47;;;16.70;74.50;;;;;;2281326;55;20971;-66
2024/03/16 11:11:10;;;;;;;1.27;0.50;;;16.70;74.20;;;;;;2281894;56;21002;-66
2024/03/16 11:13:36;;;;;;;1.35;0.40;;;16.70;74.40;;;;;;2281442;55;22493;-67
2024/03/16 11:16:52;;;;;;;1.27;0.50;;;16.80;74.50;;;;;;2281785;55;21018;-65
2024/03/16 11:19:20;;;;;;;1.70;0.73;;;16.80;73.20;;;;;;2281702;56;21738;-66
2024/03/16 11:21:48;;;;;;;2.83;0.70;;;16.80;74.70;;;;;;2288369;55;20991;-66
2024/03/16 11:24:16;;;;;;;1.30;0.55;;;16.80;74.60;;;;;;2307212;55;20989;-65
2024/03/16 11:26:45;;;;;;;1.90;0.57;;;16.80;74.30;;;;;;2313170;54;21545;-66
2024/03/16 11:29:22;;;;;;;1.23;0.50;;;16.80;74.20;;;;;;2312929;55;20993;-66
2024/03/16 11:31:53;;;;;;;1.40;0.55;;;16.80;73.80;;;;;;2314627;55;20945;-66
2024/03/16 11:34:20;;;;;;;0.75;0.40;;;16.80;74.00;;;;;;2313167;53;21020;-66
2024/03/16 11:36:53;;;;;;;1.45;0.47;;;16.80;73.80;;;;;;2313667;55;21039;-67
2024/03/16 11:39:27;;;;;;;1.77;0.40;;;16.80;73.10;;;;;;2313708;55;21022;-66
2024/03/16 11:41:58;;;;;;;1.08;0.30;;;16.80;73.60;;;;;;2313488;53;20984;-65
2024/03/16 11:44:24;;;;;;;1.75;0.50;;;16.80;73.80;;;;;;2313362;53;21083;-66
2024/03/16 11:46:53;;;;;;;0.80;0.30;;;16.80;74.00;;;;;;2313370;53;21044;-66
2024/03/16 11:49:24;;;;;;;1.33;0.50;;;16.80;74.20;;;;;;2313277;53;20989;-66
2024/03/16 11:51:54;;;;;;;0.95;0.40;;;16.80;74.40;;;;;;2313009;55;21344;-66
2024/03/16 11:54:21;;;;;;;0.93;0.40;;;16.80;74.50;;;;;;2312832;55;20977;-66
2024/03/16 11:56:47;;;;;;;1.17;0.40;;;16.80;74.60;;;;;;2316482;55;20921;-67
2024/03/16 11:59:15;;;;;;;1.92;0.70;;;16.90;74.70;;;;;;2313478;53;21388;-66
2024/03/16 12:01:43;;;;;;;2.00;0.60;;;16.90;74.40;;;;;;2313311;55;21840;-66
2024/03/16 12:04:18;;;;;;;1.23;0.47;;;16.90;74.30;;;;;;2313337;55;21000;-67
2024/03/16 12:06:46;;;;;;;2.67;0.60;;;17.00;74.50;;;;;;2312669;55;20993;-66
2024/03/16 12:09:30;;;;;;;1.60;0.40;;;17.00;75.00;;;;;;2313913;53;21001;-66
2024/03/16 12:11:58;;;;;;;1.17;0.40;;;17.10;75.50;;;;;;2313626;54;21052;-67
2024/03/16 12:14:24;;;;;;;0.85;0.30;;;17.10;75.80;;;;;;2313229;55;21907;-70
2024/03/16 12:16:54;;;;;;;1.08;0.37;;;17.20;76.40;;;;;;2313185;55;21033;-68
2024/03/16 12:19:21;;;;;;;1.67;0.52;;;17.30;76.70;;;;;;2313549;54;20981;-69
2024/03/16 12:21:49;;;;;;;1.95;0.52;;;17.40;76.60;;;;;;2314392;55;21044;-69
2024/03/16 12:24:19;;;;;;;2.83;0.50;;;17.50;76.80;;;;;;2313548;55;21378;-69
2024/03/16 12:26:46;;;;;;;1.08;0.37;;;17.60;76.70;;;;;;2313515;55;20949;-70
2024/03/16 12:29:19;;;;;;;1.05;0.32;;;17.60;76.30;;;;;;2313232;53;20973;-68
2024/03/16 12:31:53;;;;;;;0.75;0.30;;;17.70;75.60;;;;;;2312911;53;21418;-68
2024/03/16 12:34:19;;;;;;;0.98;0.40;;;17.80;75.90;;;;;;2290749;54;20945;-69
2024/03/16 12:36:47;;;;;;;0.85;0.30;;;17.90;76.00;;;;;;2314595;55;20917;-70
2024/03/16 12:39:15;;;;;;;1.15;0.30;;;18.00;75.70;;;;;;2313446;55;21045;-69
2024/03/16 12:41:42;;;;;;;1.10;0.37;;;18.00;75.30;;;;;;2313393;55;21430;-69
2024/03/16 12:44:09;;;;;;;0.88;0.20;;;18.00;75.00;;;;;;2313082;55;20936;-68
2024/03/16 12:46:35;;;;;;;0.20;0.20;;;18.10;74.60;;;;;;2313782;54;20981;-66
2024/03/16 12:49:02;;;;;;;0.47;0.20;;;18.10;74.50;;;;;;2313121;54;20952;-66
2024/03/16 12:51:29;;;;;;;0.80;0.35;;;18.10;74.20;;;;;;2312886;53;21517;-65
2024/03/16 12:53:55;;;;;;;0.62;0.20;;;18.10;74.00;;;;;;2313230;55;20981;-67